createdAt,value
2023-02-24T00:01:13.044Z,100535.03
2023-02-24T00:03:44.811Z,100539.84
2023-02-24T00:06:13.695Z,100535.00
2023-02-24T00:08:42.242Z,100534.47
2023-02-24T00:11:12.864Z,100531.81
2023-02-24T00:13:40.585Z,100530.66
2023-02-24T00:16:08.648Z,100530.28
2023-02-24T00:18:36.456Z,100540.63
2023-02-24T00:21:13.401Z,100532.16
2023-02-24T00:23:43.982Z,100531.63
2023-02-24T00:26:13.015Z,100528.59
2023-02-24T00:28:41.282Z,100533.41
2023-02-24T00:31:11.208Z,100529.28
2023-02-24T00:33:39.631Z,100520.47
2023-02-24T00:36:09.359Z,100523.66
2023-02-24T00:38:36.917Z,100520.41
2023-02-24T00:41:12.519Z,100511.31
2023-02-24T00:43:40.128Z,100508.16
2023-02-24T00:46:11.445Z,100516.53
2023-02-24T00:48:41.608Z,100517.19
2023-02-24T00:51:11.187Z,100520.75
2023-02-24T00:53:39.424Z,100521.00
2023-02-24T00:56:08.243Z,100518.72
2023-02-24T00:58:37.410Z,100517.97
2023-02-24T01:01:05.399Z,100527.03
2023-02-24T01:03:33.739Z,100526.00
2023-02-24T01:06:03.257Z,100511.47
2023-02-24T01:08:36.378Z,100511.91
2023-02-24T01:11:22.546Z,100513.44
2023-02-24T01:13:51.660Z,100508.97
2023-02-24T01:16:19.567Z,100511.88
2023-02-24T01:18:48.606Z,100518.88
2023-02-24T01:21:16.482Z,100515.25
2023-02-24T01:23:46.153Z,100513.34
2023-02-24T01:26:14.165Z,100519.16
2023-02-24T01:28:41.635Z,100518.25
2023-02-24T01:31:10.946Z,100513.75
2023-02-24T01:33:39.211Z,100520.69
2023-02-24T01:36:11.128Z,100520.50
2023-02-24T01:38:39.135Z,100512.28
2023-02-24T01:41:07.515Z,100506.72
2023-02-24T01:43:35.407Z,100510.50
2023-02-24T01:46:02.791Z,100512.41
2023-02-24T01:48:31.631Z,100504.81
2023-02-24T01:50:59.348Z,100513.84
2023-02-24T01:53:26.778Z,100508.38
2023-02-24T01:55:54.485Z,100506.06
2023-02-24T01:58:26.672Z,100498.25
2023-02-24T02:00:54.285Z,100503.09
2023-02-24T02:03:30.711Z,100493.00
2023-02-24T02:06:03.570Z,100500.50
2023-02-24T02:08:31.678Z,100495.72
2023-02-24T02:11:04.393Z,100491.25
2023-02-24T02:13:35.720Z,100483.94
2023-02-24T02:16:34.182Z,100491.47
2023-02-24T02:19:20.301Z,100489.06
2023-02-24T02:22:02.300Z,100494.00
2023-02-24T02:24:53.370Z,100487.41
2023-02-24T02:27:34.770Z,100488.00
2023-02-24T02:30:45.676Z,100487.41
2023-02-24T02:34:03.063Z,100485.41
2023-02-24T02:36:38.703Z,100488.50
2023-02-24T02:39:14.686Z,100486.16
2023-02-24T02:41:53.088Z,100486.72
2023-02-24T02:44:25.068Z,100485.94
2023-02-24T02:47:01.784Z,100483.00
2023-02-24T02:49:37.057Z,100480.66
2023-02-24T02:52:13.710Z,100482.09
2023-02-24T02:54:49.734Z,100470.66
2023-02-24T02:57:21.653Z,100480.22
2023-02-24T02:59:54.372Z,100482.06
2023-02-24T03:02:28.650Z,100477.50
2023-02-24T03:04:59.637Z,100481.16
2023-02-24T03:07:35.004Z,100480.84
2023-02-24T03:10:10.790Z,100478.84
2023-02-24T03:12:42.203Z,100478.41
2023-02-24T03:15:12.859Z,100476.63
2023-02-24T03:17:45.349Z,100472.66
2023-02-24T03:20:22.425Z,100471.06
2023-02-24T03:22:57.487Z,100465.88
2023-02-24T03:25:30.799Z,100463.28
2023-02-24T03:28:05.863Z,100455.75
2023-02-24T03:30:44.237Z,100447.31
2023-02-24T03:33:20.961Z,100446.81
2023-02-24T03:35:51.461Z,100446.25
2023-02-24T03:38:23.930Z,100440.31
2023-02-24T03:40:51.682Z,100434.84
2023-02-24T03:43:25.501Z,100435.56
2023-02-24T03:45:54.182Z,100421.94
2023-02-24T03:48:23.594Z,100423.50
2023-02-24T03:50:51.557Z,100415.72
2023-02-24T03:53:33.797Z,100420.34
2023-02-24T03:56:11.647Z,100416.06
2023-02-24T03:58:52.314Z,100421.75
2023-02-24T04:01:27.410Z,100415.03
2023-02-24T04:04:02.439Z,100409.75
2023-02-24T04:06:36.422Z,100400.91
2023-02-24T04:09:11.608Z,100399.50
2023-02-24T04:11:45.978Z,100406.94
2023-02-24T04:14:20.013Z,100407.44
2023-02-24T04:16:57.005Z,100396.81
2023-02-24T04:19:29.157Z,100401.75
2023-02-24T04:21:57.907Z,100398.81
2023-02-24T04:24:30.311Z,100401.03
2023-02-24T04:27:00.058Z,100388.13
2023-02-24T04:29:35.467Z,100384.31
2023-02-24T04:32:06.142Z,100388.44
2023-02-24T04:34:33.780Z,100381.63
2023-02-24T04:37:02.323Z,100370.69
2023-02-24T04:39:32.228Z,100378.56
2023-02-24T04:42:01.602Z,100377.72
2023-02-24T04:44:29.250Z,100376.00
2023-02-24T04:46:57.035Z,100365.72
2023-02-24T04:49:24.491Z,100368.03
2023-02-24T04:51:51.985Z,100362.72
2023-02-24T04:54:21.371Z,100364.47
2023-02-24T04:56:52.066Z,100354.16
2023-02-24T04:59:20.296Z,100356.69
2023-02-24T05:01:51.551Z,100354.09
2023-02-24T05:04:19.192Z,100354.03
2023-02-24T05:06:47.398Z,100347.16
2023-02-24T05:09:18.165Z,100339.16
2023-02-24T05:11:48.944Z,100340.34
2023-02-24T05:14:20.866Z,100332.63
2023-02-24T05:16:49.735Z,100327.75
2023-02-24T05:19:36.866Z,100320.94
2023-02-24T05:22:06.994Z,100321.00
2023-02-24T05:24:35.260Z,100318.81
2023-02-24T05:27:03.939Z,100315.41
2023-02-24T05:29:36.609Z,100311.78
2023-02-24T05:32:05.688Z,100311.81
2023-02-24T05:34:34.438Z,100309.59
2023-02-24T05:37:10.202Z,100311.56
2023-02-24T05:39:38.027Z,100306.91
2023-02-24T05:42:07.199Z,100309.19
2023-02-24T05:44:36.465Z,100305.16
2023-02-24T05:47:05.626Z,100299.06
2023-02-24T05:49:35.462Z,100298.63
2023-02-24T05:52:07.765Z,100287.75
2023-02-24T05:54:38.510Z,100293.53
2023-02-24T05:57:08.940Z,100293.66
2023-02-24T05:59:37.880Z,100292.31
2023-02-24T06:02:09.355Z,100289.66
2023-02-24T06:04:46.413Z,100294.03
2023-02-24T06:07:19.089Z,100292.63
2023-02-24T06:09:50.033Z,100284.91
2023-02-24T06:12:19.007Z,100282.25
2023-02-24T06:14:47.885Z,100277.13
2023-02-24T06:17:16.985Z,100273.44
2023-02-24T06:19:44.497Z,100274.53
2023-02-24T06:22:14.783Z,100264.50
2023-02-24T06:24:44.349Z,100262.16
2023-02-24T06:27:17.739Z,100270.06
2023-02-24T06:29:46.014Z,100260.66
2023-02-24T06:32:14.901Z,100271.25
2023-02-24T06:34:42.506Z,100262.56
2023-02-24T06:37:14.308Z,100250.19
2023-02-24T06:39:42.959Z,100252.19
2023-02-24T06:42:12.263Z,100249.25
2023-02-24T06:44:41.194Z,100253.13
2023-02-24T06:47:13.982Z,100242.94
2023-02-24T06:49:42.971Z,100245.94
2023-02-24T06:52:10.999Z,100243.38
2023-02-24T06:54:39.040Z,100236.97
2023-02-24T06:57:09.777Z,100230.81
2023-02-24T06:59:37.273Z,100228.78
2023-02-24T07:02:04.685Z,100224.78
2023-02-24T07:04:43.542Z,100232.81
2023-02-24T07:07:14.192Z,100224.50
2023-02-24T07:09:43.795Z,100217.69
2023-02-24T07:12:12.488Z,100220.81
2023-02-24T07:14:40.393Z,100230.28
2023-02-24T07:17:08.376Z,100216.28
2023-02-24T07:19:36.730Z,100219.28
2023-02-24T07:22:04.573Z,100223.00
2023-02-24T07:24:36.450Z,100210.53
2023-02-24T07:27:06.666Z,100209.84
2023-02-24T07:29:35.536Z,100210.00
2023-02-24T07:32:05.583Z,100193.28
2023-02-24T07:34:34.152Z,100191.34
2023-02-24T07:37:06.613Z,100197.91
2023-02-24T07:39:36.773Z,100199.38
2023-02-24T07:42:05.331Z,100192.59
2023-02-24T07:44:33.094Z,100191.97
2023-02-24T07:47:00.719Z,100188.47
2023-02-24T07:49:30.325Z,100185.25
2023-02-24T07:51:58.584Z,100172.94
2023-02-24T07:54:30.009Z,100171.19
2023-02-24T07:57:00.054Z,100154.16
2023-02-24T07:59:29.875Z,100146.94
2023-02-24T08:01:58.024Z,100135.31
2023-02-24T08:04:27.733Z,100132.16
2023-02-24T08:07:02.418Z,100139.09
2023-02-24T08:10:07.955Z,100136.09
2023-02-24T08:12:42.581Z,100120.16
2023-02-24T08:15:17.956Z,100117.53
2023-02-24T08:17:47.321Z,100121.09
2023-02-24T08:20:25.820Z,100110.81
2023-02-24T08:22:55.132Z,100102.88
2023-02-24T08:25:25.282Z,100100.41
2023-02-24T08:28:07.515Z,100101.56
2023-02-24T08:30:39.776Z,100099.94
2023-02-24T08:33:09.926Z,100079.75
2023-02-24T08:35:44.328Z,100076.28
2023-02-24T08:38:15.338Z,100070.78
2023-02-24T08:40:58.584Z,100076.53
2023-02-24T08:43:34.403Z,100070.78
2023-02-24T08:46:10.216Z,100069.94
2023-02-24T08:48:42.173Z,100075.31
2023-02-24T08:51:15.075Z,100059.38
2023-02-24T08:53:43.578Z,100061.16
2023-02-24T08:56:14.078Z,100050.88
2023-02-24T08:58:47.762Z,100037.63
2023-02-24T09:01:24.082Z,100034.59
2023-02-24T09:03:55.130Z,100036.63
2023-02-24T09:06:26.215Z,100035.75
2023-02-24T09:09:17.067Z,100031.66
2023-02-24T09:11:45.800Z,100027.56
2023-02-24T09:14:26.828Z,100022.16
2023-02-24T09:17:06.144Z,100021.88
2023-02-24T09:20:02.238Z,100004.78
2023-02-24T09:22:32.565Z,100007.81
2023-02-24T09:25:23.879Z,100001.69
2023-02-24T09:27:55.136Z,100002.44
2023-02-24T09:30:50.816Z,99997.19
2023-02-24T09:33:21.382Z,99994.06
2023-02-24T09:36:02.871Z,99993.88
2023-02-24T09:38:49.269Z,99985.41
2023-02-24T09:41:31.680Z,99974.81
2023-02-24T09:44:07.401Z,99972.47
2023-02-24T09:46:42.705Z,99969.91
2023-02-24T09:49:17.280Z,99966.75
2023-02-24T09:51:45.578Z,99959.38
2023-02-24T09:54:16.836Z,99960.75
2023-02-24T09:57:06.978Z,99960.94
2023-02-24T09:59:51.057Z,99963.47
2023-02-24T10:02:39.428Z,99960.75
2023-02-24T10:05:19.493Z,99945.94
2023-02-24T10:07:48.086Z,99941.53
2023-02-24T10:10:21.101Z,99947.16
2023-02-24T10:12:52.639Z,99947.16
2023-02-24T10:15:43.680Z,99940.28
2023-02-24T10:18:27.765Z,99930.25
2023-02-24T10:21:02.822Z,99924.03
2023-02-24T10:23:45.121Z,99928.16
2023-02-24T10:26:30.416Z,99919.47
2023-02-24T10:29:09.149Z,99915.75
2023-02-24T10:31:45.996Z,99917.63
2023-02-24T10:34:20.810Z,99908.03
2023-02-24T10:36:50.561Z,99906.88
2023-02-24T10:39:25.296Z,99895.13
2023-02-24T10:41:57.537Z,99903.06
2023-02-24T10:44:27.264Z,99896.03
2023-02-24T10:47:11.530Z,99887.44
2023-02-24T10:49:56.928Z,99892.63
2023-02-24T10:52:50.664Z,99895.44
2023-02-24T10:55:50.640Z,99879.53
2023-02-24T10:58:28.687Z,99882.69
2023-02-24T11:01:13.450Z,99872.09
2023-02-24T11:03:48.000Z,99874.19
2023-02-24T11:06:30.882Z,99870.63
2023-02-24T11:09:19.088Z,99867.66
2023-02-24T11:12:05.442Z,99865.31
2023-02-24T11:14:52.256Z,99853.09
2023-02-24T11:17:26.913Z,99848.81
2023-02-24T11:20:01.206Z,99846.28
2023-02-24T11:22:33.660Z,99845.94
2023-02-24T11:25:06.567Z,99829.75
2023-02-24T11:27:34.741Z,99834.00
2023-02-24T11:30:14.844Z,99815.72
2023-02-24T11:32:54.862Z,99818.44
2023-02-24T11:35:27.265Z,99818.63
2023-02-24T11:38:05.990Z,99819.47
2023-02-24T11:40:38.010Z,99805.16
2023-02-24T11:43:11.813Z,99798.00
2023-02-24T11:45:44.080Z,99784.53
2023-02-24T11:48:16.979Z,99764.13
2023-02-24T11:50:48.153Z,99751.72
2023-02-24T11:53:26.437Z,99756.97
2023-02-24T11:56:03.157Z,99753.34
2023-02-24T11:58:40.076Z,99748.72
2023-02-24T12:01:15.822Z,99744.84
2023-02-24T12:03:51.856Z,99729.59
2023-02-24T12:06:23.743Z,99738.31
2023-02-24T12:08:57.986Z,99736.53
2023-02-24T12:11:36.729Z,99740.28
2023-02-24T12:14:16.718Z,99737.88
2023-02-24T12:16:48.033Z,99726.66
2023-02-24T12:19:20.165Z,99726.00
2023-02-24T12:21:52.954Z,99717.78
2023-02-24T12:24:22.258Z,99713.69
2023-02-24T12:27:03.123Z,99714.22
2023-02-24T12:29:48.418Z,99702.66
2023-02-24T12:32:25.142Z,99702.78
2023-02-24T12:35:06.739Z,99694.16
2023-02-24T12:37:48.418Z,99689.19
2023-02-24T12:40:30.924Z,99694.47
2023-02-24T12:43:09.194Z,99694.16
2023-02-24T12:45:47.776Z,99679.91
2023-02-24T12:48:31.819Z,99686.25
2023-02-24T12:51:05.571Z,99673.19
2023-02-24T12:53:42.320Z,99662.72
2023-02-24T12:56:19.227Z,99659.88
2023-02-24T12:58:50.692Z,99647.31
2023-02-24T13:01:25.631Z,99646.44
2023-02-24T13:04:12.503Z,99633.50
2023-02-24T13:06:53.052Z,99633.09
2023-02-24T13:09:30.231Z,99621.38
2023-02-24T13:12:04.847Z,99609.72
2023-02-24T13:14:35.917Z,99608.63
2023-02-24T13:17:06.127Z,99601.91
2023-02-24T13:19:33.918Z,99611.78
2023-02-24T13:22:07.098Z,99604.41
2023-02-24T13:24:34.886Z,99601.59
2023-02-24T13:27:09.042Z,99600.25
2023-02-24T13:29:46.820Z,99597.13
2023-02-24T13:32:31.585Z,99592.84
2023-02-24T13:35:01.535Z,99600.50
2023-02-24T13:37:35.644Z,99585.34
2023-02-24T13:40:23.251Z,99585.41
2023-02-24T13:43:01.075Z,99583.44
2023-02-24T13:45:30.172Z,99571.81
2023-02-24T13:48:37.960Z,99571.34
2023-02-24T13:51:23.724Z,99568.69
2023-02-24T13:54:08.303Z,99566.09
2023-02-24T13:56:44.625Z,99555.75
2023-02-24T13:59:39.603Z,99549.19
2023-02-24T14:02:16.377Z,99545.41
2023-02-24T14:04:49.183Z,99545.44
2023-02-24T14:07:21.981Z,99532.84
2023-02-24T14:09:53.358Z,99537.88
2023-02-24T14:12:27.873Z,99531.75
2023-02-24T14:14:57.493Z,99529.56
2023-02-24T14:17:28.857Z,99522.38
2023-02-24T14:20:08.979Z,99522.72
2023-02-24T14:22:44.080Z,99518.59
2023-02-24T14:25:12.852Z,99521.53
2023-02-24T14:27:41.067Z,99514.84
2023-02-24T14:30:23.754Z,99505.00
2023-02-24T14:32:51.342Z,99515.66
2023-02-24T14:35:24.318Z,99504.75
2023-02-24T14:37:51.747Z,99498.19
2023-02-24T14:40:21.887Z,99494.19
2023-02-24T14:42:50.455Z,99493.44
2023-02-24T14:45:22.946Z,99488.50
2023-02-24T14:47:50.463Z,99488.84
2023-02-24T14:50:19.906Z,99487.81
2023-02-24T14:52:51.641Z,99482.09
2023-02-24T14:55:22.181Z,99478.03
2023-02-24T14:57:56.243Z,99478.00
2023-02-24T15:00:28.926Z,99473.81
2023-02-24T15:03:05.270Z,99473.53
2023-02-24T15:05:33.165Z,99467.53
2023-02-24T15:08:03.841Z,99466.91
2023-02-24T15:10:32.495Z,99452.44
2023-02-24T15:13:13.413Z,99463.50
2023-02-24T15:15:42.715Z,99446.16
2023-02-24T15:18:18.883Z,99443.63
2023-02-24T15:20:47.755Z,99426.63
2023-02-24T15:23:27.191Z,99419.56
2023-02-24T15:25:54.715Z,99424.97
2023-02-24T15:28:25.629Z,99416.75
2023-02-24T15:31:02.150Z,99415.06
2023-02-24T15:33:35.042Z,99404.47
2023-02-24T15:36:07.712Z,99401.63
2023-02-24T15:38:37.257Z,99396.00
2023-02-24T15:41:06.632Z,99398.09
2023-02-24T15:43:37.105Z,99388.88
2023-02-24T15:46:17.215Z,99387.44
2023-02-24T15:48:45.876Z,99382.59
2023-02-24T15:51:22.613Z,99380.41
2023-02-24T15:53:50.106Z,99380.63
2023-02-24T15:56:18.181Z,99377.47
2023-02-24T15:58:45.621Z,99374.31
2023-02-24T16:01:13.659Z,99367.44
2023-02-24T16:03:43.142Z,99357.47
2023-02-24T16:06:18.265Z,99363.81
2023-02-24T16:08:46.795Z,99372.00
2023-02-24T16:11:17.522Z,99358.44
2023-02-24T16:13:48.158Z,99351.03
2023-02-24T16:16:15.619Z,99346.16
2023-02-24T16:18:45.023Z,99340.09
2023-02-24T16:21:13.714Z,99340.13
2023-02-24T16:23:41.318Z,99335.59
2023-02-24T16:26:15.460Z,99331.16
2023-02-24T16:28:43.413Z,99331.53
2023-02-24T16:31:10.949Z,99337.31
2023-02-24T16:33:53.273Z,99337.44
2023-02-24T16:36:23.864Z,99334.25
2023-02-24T16:38:51.763Z,99331.19
2023-02-24T16:41:19.637Z,99325.41
2023-02-24T16:43:47.358Z,99324.56
2023-02-24T16:46:17.624Z,99312.31
2023-02-24T16:48:47.605Z,99318.91
2023-02-24T16:51:15.912Z,99319.38
2023-02-24T16:53:44.896Z,99320.69
2023-02-24T16:56:15.043Z,99324.41
2023-02-24T16:58:42.566Z,99311.84
2023-02-24T17:01:17.204Z,99300.78
2023-02-24T17:03:49.687Z,99308.69
2023-02-24T17:06:17.131Z,99310.72
2023-02-24T17:08:47.073Z,99304.44
2023-02-24T17:11:17.163Z,99300.25
2023-02-24T17:13:44.764Z,99298.56
2023-02-24T17:16:13.985Z,99302.00
2023-02-24T17:18:41.756Z,99298.41
2023-02-24T17:21:10.899Z,99287.94
2023-02-24T17:23:38.299Z,99298.25
2023-02-24T17:26:07.196Z,99283.09
2023-02-24T17:28:37.154Z,99282.53
2023-02-24T17:31:05.352Z,99282.34
2023-02-24T17:33:33.721Z,99285.91
2023-02-24T17:36:01.682Z,99272.28
2023-02-24T17:38:29.090Z,99282.19
2023-02-24T17:40:57.570Z,99283.19
2023-02-24T17:43:26.352Z,99278.41
2023-02-24T17:45:53.876Z,99270.97
2023-02-24T17:48:22.182Z,99260.91
2023-02-24T17:50:51.938Z,99267.63
2023-02-24T17:53:19.380Z,99258.91
2023-02-24T17:56:01.896Z,99261.09
2023-02-24T17:58:31.654Z,99248.13
2023-02-24T18:00:59.250Z,99243.69
2023-02-24T18:03:26.807Z,99239.47
2023-02-24T18:06:00.129Z,99229.59
2023-02-24T18:08:27.789Z,99226.25
2023-02-24T18:10:55.231Z,99232.06
2023-02-24T18:13:22.719Z,99221.81
2023-02-24T18:15:51.716Z,99215.09
2023-02-24T18:18:19.252Z,99215.09
2023-02-24T18:20:47.549Z,99209.97
2023-02-24T18:23:15.178Z,99215.97
2023-02-24T18:25:42.818Z,99210.00
2023-02-24T18:28:10.623Z,99209.91
2023-02-24T18:30:39.375Z,99213.22
2023-02-24T18:33:08.369Z,99208.31
2023-02-24T18:35:38.355Z,99207.44
2023-02-24T18:38:06.134Z,99201.47
2023-02-24T18:40:33.560Z,99197.16
2023-02-24T18:43:01.061Z,99186.97
2023-02-24T18:45:28.509Z,99189.53
2023-02-24T18:47:55.972Z,99191.06
2023-02-24T18:50:25.123Z,99189.22
2023-02-24T18:52:52.950Z,99187.75
2023-02-24T18:55:22.137Z,99186.72
2023-02-24T18:57:49.595Z,99187.38
2023-02-24T19:00:17.907Z,99180.88
2023-02-24T19:02:47.294Z,99180.00
2023-02-24T19:05:14.834Z,99175.81
2023-02-24T19:07:43.853Z,99170.38
2023-02-24T19:10:12.675Z,99174.66
2023-02-24T19:12:40.095Z,99168.81
2023-02-24T19:15:08.529Z,99162.19
2023-02-24T19:17:36.067Z,99163.84
2023-02-24T19:20:03.495Z,99155.38
2023-02-24T19:22:31.055Z,99147.69
2023-02-24T19:24:59.810Z,99143.38
2023-02-24T19:27:28.553Z,99145.81
2023-02-24T19:29:56.740Z,99140.88
2023-02-24T19:32:24.303Z,99134.06
2023-02-24T19:34:51.777Z,99132.34
2023-02-24T19:37:19.367Z,99128.88
2023-02-24T19:39:46.798Z,99114.41
2023-02-24T19:42:15.612Z,99120.44
2023-02-24T19:44:43.323Z,99117.84
2023-02-24T19:47:11.161Z,99116.94
2023-02-24T19:49:38.845Z,99120.38
2023-02-24T19:52:06.288Z,99117.84
2023-02-24T19:54:33.695Z,99114.34
2023-02-24T19:57:02.128Z,99110.19
2023-02-24T19:59:30.981Z,99106.66
2023-02-24T20:01:58.412Z,99099.78
2023-02-24T20:04:26.049Z,99083.03
2023-02-24T20:06:53.532Z,99083.94
2023-02-24T20:09:22.093Z,99083.81
2023-02-24T20:11:51.680Z,99087.38
2023-02-24T20:14:20.721Z,99081.75
2023-02-24T20:16:49.643Z,99082.78
2023-02-24T20:19:18.001Z,99079.69
2023-02-24T20:21:45.853Z,99077.91
2023-02-24T20:24:17.515Z,99089.50
2023-02-24T20:26:47.777Z,99084.34
2023-02-24T20:29:16.272Z,99091.28
2023-02-24T20:31:43.862Z,99091.94
2023-02-24T20:34:14.390Z,99097.38
2023-02-24T20:36:43.568Z,99085.38
2023-02-24T20:39:13.916Z,99082.88
2023-02-24T20:41:42.094Z,99078.63
2023-02-24T20:44:10.492Z,99086.25
2023-02-24T20:46:38.822Z,99075.19
2023-02-24T20:49:08.767Z,99073.50
2023-02-24T20:51:39.038Z,99073.47
2023-02-24T20:54:07.116Z,99064.97
2023-02-24T20:56:37.667Z,99070.94
2023-02-24T20:59:08.349Z,99066.66
2023-02-24T21:01:38.923Z,99058.06
2023-02-24T21:04:07.951Z,99060.69
2023-02-24T21:06:37.105Z,99056.34
2023-02-24T21:09:05.499Z,99052.03
2023-02-24T21:11:33.343Z,99053.75
2023-02-24T21:14:01.211Z,99047.91
2023-02-24T21:16:30.591Z,99035.13
2023-02-24T21:18:59.266Z,99032.53
2023-02-24T21:21:26.766Z,99036.81
2023-02-24T21:23:56.637Z,99024.91
2023-02-24T21:26:26.842Z,99026.59
2023-02-24T21:28:57.429Z,99031.72
2023-02-24T21:31:26.424Z,99023.13
2023-02-24T21:33:55.237Z,99008.59
2023-02-24T21:36:25.786Z,99021.47
2023-02-24T21:38:55.643Z,99015.50
2023-02-24T21:41:23.646Z,99002.66
2023-02-24T21:43:54.676Z,99002.69
2023-02-24T21:46:22.772Z,99005.28
2023-02-24T21:48:54.702Z,99010.38
2023-02-24T21:51:24.704Z,98995.00
2023-02-24T21:53:54.883Z,98999.19
2023-02-24T21:56:26.003Z,98988.97
2023-02-24T21:58:55.184Z,98994.22
2023-02-24T22:01:25.352Z,98993.34
2023-02-24T22:03:54.268Z,98991.63
2023-02-24T22:06:22.379Z,98983.09
2023-02-24T22:08:50.046Z,98976.31
2023-02-24T22:11:19.827Z,98971.19
2023-02-24T22:13:49.237Z,98978.03
2023-02-24T22:16:20.744Z,98958.28
2023-02-24T22:18:49.234Z,98969.50
2023-02-24T22:21:19.081Z,98966.03
2023-02-24T22:23:47.726Z,98970.28
2023-02-24T22:26:16.760Z,98968.56
2023-02-24T22:28:46.735Z,98952.34
2023-02-24T22:31:18.010Z,98962.56
2023-02-24T22:33:46.163Z,98959.19
2023-02-24T22:36:15.458Z,98967.72
2023-02-24T22:38:45.556Z,98960.94
2023-02-24T22:41:15.562Z,98965.22
2023-02-24T22:43:43.443Z,98960.78
2023-02-24T22:46:14.722Z,98965.19
2023-02-24T22:48:43.773Z,98959.06
2023-02-24T22:51:12.997Z,98953.06
2023-02-24T22:53:42.528Z,98947.34
2023-02-24T22:56:12.470Z,98954.88
2023-02-24T22:58:40.077Z,98954.09
2023-02-24T23:01:10.453Z,98947.16
2023-02-24T23:03:38.314Z,98941.09
2023-02-24T23:06:09.711Z,98948.03
2023-02-24T23:08:39.428Z,98956.66
2023-02-24T23:11:09.379Z,98948.09
2023-02-24T23:13:38.247Z,98956.72
2023-02-24T23:16:08.350Z,98954.16
2023-02-24T23:18:37.096Z,98943.94
2023-02-24T23:21:08.935Z,98949.03
2023-02-24T23:23:37.809Z,98940.44
2023-02-24T23:26:06.329Z,98935.25
2023-02-24T23:28:33.764Z,98939.66
2023-02-24T23:31:01.220Z,98934.47
2023-02-24T23:33:28.887Z,98948.94
2023-02-24T23:35:59.075Z,98949.84
2023-02-24T23:38:27.885Z,98948.19
2023-02-24T23:40:55.357Z,98936.22
2023-02-24T23:43:23.085Z,98931.78
2023-02-24T23:45:50.535Z,98937.09
2023-02-24T23:48:18.192Z,98929.47
2023-02-24T23:50:45.830Z,98933.72
2023-02-24T23:53:13.390Z,98928.50
2023-02-24T23:55:42.172Z,98919.00
2023-02-24T23:58:09.605Z,98927.69
